Time;durP1;ratioP1;P1;durP2;ratioP2;P2;SDS_P1;SDS_P2;PMS_P1;PMS_P2;Temp;Humidity;BMP_temperature;BMP_pressure;BME280_temperature;BME280_humidity;BME280_pressure;Samples;Min_cycle;Max_cycle;Signal;HPM_P1;HPM_P2
2022/05/30 00:01:43;;;;;;;5.57;1.50;;;12.70;99.90;;;;;;5075496;28;20198;-68
2022/05/30 00:04:11;;;;;;;4.10;1.23;;;12.60;99.90;;;;;;5073128;28;20579;-68
2022/05/30 00:06:39;;;;;;;4.63;1.60;;;12.70;99.90;;;;;;5072544;28;20254;-68
2022/05/30 00:09:08;;;;;;;6.13;1.00;;;12.70;99.90;;;;;;5071836;28;20194;-68
2022/05/30 00:11:36;;;;;;;1.50;1.00;;;12.50;99.90;;;;;;5072772;28;20261;-69
2022/05/30 00:14:03;;;;;;;2.43;0.90;;;12.40;99.90;;;;;;5072830;28;20188;-69
2022/05/30 00:16:30;;;;;;;3.17;0.97;;;12.40;99.90;;;;;;5072943;28;20182;-69
2022/05/30 00:18:58;;;;;;;3.00;1.53;;;12.40;99.90;;;;;;5072962;28;20249;-69
2022/05/30 00:21:30;;;;;;;3.17;1.17;;;12.40;99.90;;;;;;5072661;28;20549;-69
2022/05/30 00:23:57;;;;;;;6.33;1.20;;;12.50;99.90;;;;;;5072832;28;20271;-69
2022/05/30 00:26:25;;;;;;;2.43;1.27;;;12.50;99.90;;;;;;5070527;28;20243;-68
2022/05/30 00:28:53;;;;;;;7.03;1.30;;;12.50;99.90;;;;;;5071464;28;20185;-68
2022/05/30 00:31:21;;;;;;;5.40;1.70;;;12.50;99.90;;;;;;5072275;28;20555;-69
2022/05/30 00:33:49;;;;;;;2.93;1.10;;;12.50;99.90;;;;;;5072184;28;20190;-69
2022/05/30 00:36:17;;;;;;;5.07;1.17;;;12.50;99.90;;;;;;5071404;28;20191;-69
2022/05/30 00:38:44;;;;;;;3.03;1.30;;;12.50;99.90;;;;;;5071302;28;20656;-69
2022/05/30 00:41:11;;;;;;;3.10;1.50;;;12.50;99.90;;;;;;5072132;28;20182;-68
2022/05/30 00:43:46;;;;;;;3.30;1.20;;;12.50;99.90;;;;;;5072329;28;20259;-68
2022/05/30 00:46:15;;;;;;;1.30;1.07;;;12.50;99.90;;;;;;5071899;28;20674;-68
2022/05/30 00:49:05;;;;;;;4.17;1.23;;;12.50;99.90;;;;;;5072318;28;20235;-67
2022/05/30 00:51:45;;;;;;;2.97;1.20;;;12.60;99.90;;;;;;5070616;28;20272;-67
2022/05/30 00:54:21;;;;;;;3.40;1.20;;;12.60;99.90;;;;;;5072235;28;20239;-69
2022/05/30 00:56:53;;;;;;;4.30;1.10;;;12.60;99.90;;;;;;5071506;28;20653;-68
2022/05/30 00:59:21;;;;;;;2.43;1.07;;;12.70;99.90;;;;;;5070466;28;20182;-70
2022/05/30 01:01:49;;;;;;;2.63;1.13;;;12.80;99.90;;;;;;5071975;28;20262;-68
2022/05/30 01:07:09;;;;;;;2.63;0.90;;;12.90;99.90;;;;;;5071924;28;20565;-69
2022/05/30 01:09:44;;;;;;;1.27;0.90;;;12.90;99.90;;;;;;5071607;28;20194;-69
2022/05/30 01:12:13;;;;;;;3.33;1.20;;;12.90;99.90;;;;;;5051726;28;20653;-69
2022/05/30 01:14:44;;;;;;;6.43;1.27;;;13.00;99.90;;;;;;5051887;28;20587;-69
2022/05/30 01:17:16;;;;;;;2.13;0.93;;;13.00;99.90;;;;;;5051742;28;20310;-69
2022/05/30 01:20:01;;;;;;;4.13;0.90;;;13.00;99.90;;;;;;5040695;28;20244;-68
2022/05/30 01:22:54;;;;;;;5.67;1.13;;;13.10;99.90;;;;;;5071690;28;20189;-69
2022/05/30 01:25:51;;;;;;;2.60;1.40;;;13.10;99.90;;;;;;5071479;28;20219;-68
2022/05/30 01:28:27;;;;;;;4.53;1.27;;;13.10;99.90;;;;;;5071783;28;20257;-68
2022/05/30 01:30:54;;;;;;;6.63;1.23;;;13.10;99.90;;;;;;5070163;28;20191;-68
2022/05/30 01:33:22;;;;;;;1.40;0.90;;;13.10;99.90;;;;;;5071708;28;20607;-69
2022/05/30 01:35:49;;;;;;;1.30;0.80;;;13.10;99.90;;;;;;5071471;28;20195;-68
2022/05/30 01:38:17;;;;;;;1.17;0.90;;;13.20;99.90;;;;;;5070280;28;20323;-68
2022/05/30 01:40:44;;;;;;;1.47;0.80;;;13.40;99.90;;;;;;5071198;28;20656;-69
2022/05/30 01:43:11;;;;;;;3.63;0.93;;;14.40;99.90;;;;;;5071143;28;20278;-70
2022/05/30 01:45:39;;;;;;;1.53;1.17;;;14.70;99.90;;;;;;5071384;28;20207;-69
2022/05/30 01:48:06;;;;;;;4.93;0.80;;;14.90;99.90;;;;;;5071274;28;20190;-68
2022/05/30 01:50:34;;;;;;;1.83;0.90;;;14.80;99.90;;;;;;5070993;28;20188;-69
2022/05/30 01:53:01;;;;;;;1.10;0.70;;;15.20;99.90;;;;;;5071584;28;20191;-69
2022/05/30 01:55:29;;;;;;;1.67;0.87;;;16.10;99.90;;;;;;5071427;28;20187;-69
2022/05/30 01:57:56;;;;;;;1.67;0.73;;;17.00;99.90;;;;;;5071301;28;20195;-68
2022/05/30 02:00:23;;;;;;;3.60;0.73;;;17.60;99.90;;;;;;5071219;28;20541;-69
2022/05/30 02:02:51;;;;;;;4.33;1.20;;;18.10;99.90;;;;;;5071552;28;20168;-69
2022/05/30 02:05:19;;;;;;;4.20;1.10;;;18.20;99.90;;;;;;5071104;28;20685;-68
2022/05/30 02:07:49;;;;;;;7.03;1.00;;;17.60;99.90;;;;;;5071114;28;20188;-69
2022/05/30 02:10:16;;;;;;;2.23;0.80;;;16.60;99.90;;;;;;5071115;28;20223;-69
2022/05/30 02:12:44;;;;;;;3.50;0.90;;;16.40;99.90;;;;;;5074886;28;20229;-69
2022/05/30 02:15:11;;;;;;;1.20;1.00;;;16.30;99.90;;;;;;5075326;28;20177;-68
2022/05/30 02:17:38;;;;;;;1.67;0.80;;;16.20;99.90;;;;;;5075155;28;20219;-68
2022/05/30 02:20:07;;;;;;;1.00;0.70;;;16.20;99.90;;;;;;5075095;28;20262;-69
2022/05/30 02:22:39;;;;;;;3.83;0.83;;;16.40;99.90;;;;;;5074977;28;20264;-69
2022/05/30 02:25:07;;;;;;;5.20;1.00;;;16.90;99.90;;;;;;5074715;28;20212;-69
2022/05/30 02:27:35;;;;;;;3.67;0.70;;;17.00;99.90;;;;;;5074855;28;20188;-67
2022/05/30 02:30:02;;;;;;;1.30;0.60;;;16.40;99.90;;;;;;5074876;28;20262;-69
2022/05/30 02:32:30;;;;;;;2.27;0.87;;;16.10;99.90;;;;;;5075012;28;20591;-70
2022/05/30 02:37:42;;;;;;;3.43;0.80;;;15.90;99.90;;;;;;5074430;28;20195;-69
2022/05/30 02:40:10;;;;;;;3.53;1.07;;;15.80;99.90;;;;;;5074726;28;20219;-69
2022/05/30 02:42:37;;;;;;;2.97;0.80;;;15.80;99.90;;;;;;5074944;28;20285;-69
2022/05/30 02:45:10;;;;;;;0.73;0.63;;;15.60;99.90;;;;;;5074627;28;20211;-69
2022/05/30 02:47:38;;;;;;;2.50;1.20;;;15.50;99.90;;;;;;5074973;28;20556;-69
2022/05/30 02:50:05;;;;;;;1.70;0.77;;;15.40;99.90;;;;;;5074404;28;20184;-69
2022/05/30 02:52:32;;;;;;;4.40;0.80;;;15.40;99.90;;;;;;5074782;28;20587;-69
2022/05/30 02:55:00;;;;;;;1.37;0.73;;;15.40;99.90;;;;;;5072774;28;20223;-69
2022/05/30 02:57:27;;;;;;;1.23;0.80;;;15.30;99.90;;;;;;5075240;28;20242;-69
2022/05/30 02:59:54;;;;;;;3.67;0.70;;;15.20;99.90;;;;;;5074488;28;20268;-71
2022/05/30 03:02:22;;;;;;;1.17;0.70;;;15.30;99.90;;;;;;5074894;28;20184;-70
2022/05/30 03:04:49;;;;;;;2.60;0.80;;;15.30;99.90;;;;;;5074551;28;20200;-69
2022/05/30 03:07:18;;;;;;;1.60;0.83;;;15.20;99.90;;;;;;5074452;28;20266;-70
2022/05/30 03:09:47;;;;;;;4.67;1.07;;;15.10;99.90;;;;;;5074299;28;20268;-69
2022/05/30 03:12:14;;;;;;;0.90;0.80;;;15.20;99.90;;;;;;5073006;28;20188;-70
2022/05/30 03:14:41;;;;;;;0.90;0.67;;;15.20;99.90;;;;;;5074409;28;20215;-69
2022/05/30 03:17:08;;;;;;;1.27;0.80;;;15.20;99.90;;;;;;5073557;28;20318;-69
2022/05/30 03:19:37;;;;;;;0.90;0.80;;;15.30;99.90;;;;;;5073930;28;20230;-68
2022/05/30 03:22:05;;;;;;;0.77;0.60;;;15.40;99.90;;;;;;5074339;28;20179;-69
2022/05/30 03:24:32;;;;;;;2.83;0.80;;;15.60;99.90;;;;;;5056193;28;20215;-70
2022/05/30 03:27:00;;;;;;;1.03;0.90;;;15.80;99.90;;;;;;5073876;28;20251;-69
2022/05/30 03:29:27;;;;;;;2.50;1.00;;;15.80;99.90;;;;;;5073267;28;20187;-67
2022/05/30 03:31:56;;;;;;;0.83;0.70;;;15.80;99.90;;;;;;5072405;28;20233;-70
2022/05/30 03:34:26;;;;;;;1.60;0.83;;;15.70;99.90;;;;;;5074059;28;20176;-70
2022/05/30 03:36:53;;;;;;;2.07;0.90;;;15.70;99.90;;;;;;5074016;28;20258;-69
2022/05/30 03:39:23;;;;;;;3.40;0.80;;;15.70;99.90;;;;;;5073573;28;20196;-69
2022/05/30 03:41:55;;;;;;;3.07;0.70;;;15.60;99.90;;;;;;5073892;28;20579;-68
2022/05/30 03:44:23;;;;;;;1.07;0.80;;;15.50;99.90;;;;;;5073734;28;20261;-69
2022/05/30 03:46:50;;;;;;;0.73;0.73;;;15.40;99.90;;;;;;5073346;28;20186;-69
2022/05/30 03:49:18;;;;;;;1.17;0.90;;;15.30;99.90;;;;;;5073854;28;20601;-69
2022/05/30 03:51:45;;;;;;;1.17;0.90;;;15.30;99.90;;;;;;5073723;28;20214;-69
2022/05/30 03:54:13;;;;;;;0.77;0.77;;;15.20;99.90;;;;;;5072920;28;20262;-69
2022/05/30 03:56:42;;;;;;;1.57;0.73;;;15.30;99.90;;;;;;5073398;28;20188;-69
2022/05/30 03:59:09;;;;;;;0.70;0.70;;;15.30;99.90;;;;;;5073593;28;20233;-69
2022/05/30 04:01:37;;;;;;;0.93;0.87;;;15.30;99.90;;;;;;5073597;28;20176;-70
2022/05/30 04:04:05;;;;;;;2.20;1.00;;;15.30;99.90;;;;;;5051610;28;20334;-70
2022/05/30 04:06:32;;;;;;;1.90;0.80;;;15.20;99.90;;;;;;5055129;28;20230;-69
2022/05/30 04:09:00;;;;;;;2.00;1.00;;;15.20;99.90;;;;;;5071167;28;20183;-70
2022/05/30 04:11:28;;;;;;;1.60;0.80;;;15.20;99.90;;;;;;5072847;28;20191;-70
2022/05/30 04:13:55;;;;;;;1.33;0.90;;;15.20;99.90;;;;;;5073282;28;20172;-71
2022/05/30 04:16:23;;;;;;;1.43;0.80;;;15.30;99.90;;;;;;5072339;28;20184;-70
2022/05/30 04:18:51;;;;;;;1.50;0.70;;;15.40;99.90;;;;;;5054965;28;20314;-69
2022/05/30 04:21:19;;;;;;;1.03;0.83;;;15.50;99.90;;;;;;5072885;28;20208;-68
2022/05/30 04:23:46;;;;;;;1.03;0.80;;;15.50;99.90;;;;;;5051185;28;20625;-69
2022/05/30 04:26:17;;;;;;;2.43;0.90;;;15.40;99.90;;;;;;5067963;28;20661;-69
2022/05/30 04:28:47;;;;;;;2.23;0.80;;;15.40;99.90;;;;;;5073009;28;20218;-68
2022/05/30 04:31:15;;;;;;;0.87;0.77;;;15.40;99.90;;;;;;5073102;28;20179;-68
2022/05/30 04:33:44;;;;;;;1.63;1.00;;;15.30;99.90;;;;;;5065475;28;20185;-68
2022/05/30 04:36:13;;;;;;;2.60;1.00;;;15.40;99.90;;;;;;5068373;28;20176;-69
2022/05/30 04:38:41;;;;;;;1.73;1.13;;;15.40;99.90;;;;;;5072580;28;20206;-69
2022/05/30 04:41:08;;;;;;;1.33;0.80;;;15.30;99.90;;;;;;5072611;28;20180;-71
2022/05/30 04:43:36;;;;;;;11.13;1.10;;;15.20;99.90;;;;;;5072591;28;20213;-69
2022/05/30 04:46:16;;;;;;;1.37;0.80;;;15.10;99.90;;;;;;5072352;28;20215;-68
2022/05/30 04:48:44;;;;;;;2.00;1.03;;;15.00;99.90;;;;;;5071120;28;20271;-69
2022/05/30 04:51:13;;;;;;;1.87;0.80;;;14.90;99.90;;;;;;5072199;28;20181;-68
2022/05/30 04:53:44;;;;;;;1.77;1.20;;;14.80;99.90;;;;;;5072292;28;20559;-68
2022/05/30 04:56:12;;;;;;;1.80;0.90;;;14.70;99.90;;;;;;5070663;28;20195;-68
2022/05/30 04:58:41;;;;;;;0.90;0.80;;;14.60;99.90;;;;;;5072404;28;20179;-68
2022/05/30 05:01:10;;;;;;;6.13;1.20;;;14.60;99.90;;;;;;5072253;28;20680;-69
2022/05/30 05:03:38;;;;;;;5.43;0.83;;;14.60;99.90;;;;;;5072033;28;20187;-68
2022/05/30 05:06:14;;;;;;;1.00;0.80;;;14.60;99.90;;;;;;5071838;28;20697;-68
2022/05/30 05:09:19;;;;;;;2.40;1.23;;;14.50;99.90;;;;;;5070627;28;20183;-69
2022/05/30 05:11:49;;;;;;;1.90;1.10;;;14.50;99.90;;;;;;5067357;28;20192;-69
2022/05/30 05:14:17;;;;;;;3.03;1.40;;;14.50;99.90;;;;;;5071797;28;20273;-68
2022/05/30 05:16:44;;;;;;;2.93;1.23;;;14.50;99.90;;;;;;5070111;28;20266;-68
2022/05/30 05:19:12;;;;;;;2.83;1.27;;;14.50;99.90;;;;;;5071801;28;20677;-70
2022/05/30 05:21:45;;;;;;;2.10;1.47;;;14.60;99.90;;;;;;5070602;28;20184;-69
2022/05/30 05:24:15;;;;;;;1.67;1.17;;;14.60;99.90;;;;;;5072149;28;20187;-68
2022/05/30 05:26:48;;;;;;;3.20;1.40;;;14.70;99.90;;;;;;5070782;28;20194;-69
2022/05/30 05:29:17;;;;;;;2.57;1.40;;;14.60;99.90;;;;;;5070485;28;20185;-68
2022/05/30 05:31:45;;;;;;;1.40;1.20;;;14.60;99.90;;;;;;5071696;28;20582;-69
2022/05/30 05:34:15;;;;;;;6.67;1.37;;;14.50;99.90;;;;;;5071787;28;20282;-68
2022/05/30 05:36:46;;;;;;;2.07;1.50;;;14.40;99.90;;;;;;5071748;28;20605;-69
2022/05/30 05:39:17;;;;;;;4.20;1.67;;;14.30;99.90;;;;;;5069604;28;20191;-70
2022/05/30 05:41:47;;;;;;;6.13;1.70;;;14.20;99.90;;;;;;5071948;28;20190;-69
2022/05/30 05:44:16;;;;;;;3.00;1.50;;;14.20;99.90;;;;;;5070048;28;20187;-68
2022/05/30 05:46:44;;;;;;;3.83;2.10;;;14.20;99.90;;;;;;5070766;28;20548;-69
2022/05/30 05:49:12;;;;;;;3.67;1.63;;;14.20;99.90;;;;;;5071019;28;20190;-69
2022/05/30 05:51:40;;;;;;;2.17;1.20;;;14.20;99.90;;;;;;5071465;28;20191;-68
2022/05/30 05:54:09;;;;;;;5.80;1.83;;;14.20;99.90;;;;;;5069987;28;20195;-68
2022/05/30 05:56:37;;;;;;;3.97;1.20;;;14.10;99.90;;;;;;5069893;28;20222;-68
2022/05/30 05:59:04;;;;;;;8.00;1.47;;;14.10;99.90;;;;;;5071669;28;20236;-69
2022/05/30 06:01:34;;;;;;;3.93;1.97;;;13.90;99.90;;;;;;5070992;28;20183;-68
2022/05/30 06:04:07;;;;;;;3.60;1.30;;;13.80;99.90;;;;;;5070996;28;20198;-68
2022/05/30 06:06:34;;;;;;;3.87;1.67;;;13.80;99.90;;;;;;5071352;28;20260;-68
2022/05/30 06:09:03;;;;;;;2.93;1.50;;;13.70;99.90;;;;;;5070518;28;20199;-69
2022/05/30 06:11:31;;;;;;;3.17;1.77;;;13.80;99.90;;;;;;5071116;28;20206;-70
2022/05/30 06:13:59;;;;;;;5.67;2.17;;;13.70;99.90;;;;;;5070950;28;20187;-68
2022/05/30 06:16:32;;;;;;;4.17;1.60;;;13.60;99.90;;;;;;5071024;28;20192;-68
2022/05/30 06:19:01;;;;;;;3.27;1.80;;;13.40;99.90;;;;;;5071114;28;20299;-68
2022/05/30 06:21:31;;;;;;;7.77;2.30;;;13.30;99.90;;;;;;5070836;28;20178;-68
2022/05/30 06:24:01;;;;;;;7.20;2.10;;;13.30;99.90;;;;;;5071065;28;20274;-68
2022/05/30 06:26:29;;;;;;;4.53;2.10;;;13.30;99.90;;;;;;5071127;28;20242;-68
2022/05/30 06:28:57;;;;;;;4.57;1.90;;;13.20;99.90;;;;;;5071446;28;20179;-68
2022/05/30 06:31:28;;;;;;;6.73;2.10;;;13.20;99.90;;;;;;5070389;28;20571;-68
2022/05/30 06:33:56;;;;;;;5.17;2.20;;;13.20;99.90;;;;;;5069547;28;20720;-69
2022/05/30 06:36:25;;;;;;;4.30;2.27;;;13.10;99.90;;;;;;5067831;28;20174;-68
2022/05/30 06:38:54;;;;;;;5.60;2.63;;;13.10;99.90;;;;;;5062637;28;20188;-70
2022/05/30 06:41:27;;;;;;;3.87;1.90;;;13.20;99.90;;;;;;5071070;28;20650;-70
2022/05/30 06:43:58;;;;;;;9.90;2.87;;;13.20;99.90;;;;;;5070969;28;20240;-70
2022/05/30 06:46:25;;;;;;;9.70;3.50;;;13.10;99.90;;;;;;5069487;28;20225;-71
2022/05/30 06:48:56;;;;;;;5.50;1.50;;;12.40;99.90;;;;;;5071036;28;20546;-70
2022/05/30 06:51:25;;;;;;;3.00;1.53;;;11.30;99.90;;;;;;5070995;28;20682;-70
2022/05/30 06:53:53;;;;;;;1.60;1.00;;;11.10;99.90;;;;;;5069338;28;20201;-69
2022/05/30 06:56:26;;;;;;;3.87;1.03;;;11.10;99.90;;;;;;5071236;28;20268;-69
2022/05/30 06:58:55;;;;;;;1.10;0.97;;;11.10;99.90;;;;;;5075058;28;20170;-70
2022/05/30 07:01:26;;;;;;;1.00;0.90;;;11.30;99.90;;;;;;5073472;28;20186;-70
2022/05/30 07:03:56;;;;;;;2.63;0.90;;;11.30;99.90;;;;;;5072683;28;20181;-68
2022/05/30 07:06:29;;;;;;;1.20;1.10;;;11.20;99.90;;;;;;5067329;28;20303;-68
2022/05/30 07:08:57;;;;;;;3.00;1.70;;;11.20;99.90;;;;;;5064215;28;20191;-69
2022/05/30 07:11:25;;;;;;;1.40;1.10;;;11.10;99.90;;;;;;5074313;28;20178;-70
2022/05/30 07:13:54;;;;;;;0.93;0.93;;;11.10;99.90;;;;;;5062962;28;20621;-69
2022/05/30 07:16:24;;;;;;;2.20;1.20;;;11.20;99.90;;;;;;5068195;28;20192;-70
2022/05/30 07:18:51;;;;;;;1.60;1.20;;;11.20;99.90;;;;;;5074141;28;20246;-70
2022/05/30 07:21:18;;;;;;;1.80;1.10;;;11.20;99.90;;;;;;5072892;28;20186;-69
2022/05/30 07:23:46;;;;;;;1.27;1.07;;;11.20;99.90;;;;;;5069309;28;20188;-69
2022/05/30 07:26:20;;;;;;;1.83;1.20;;;11.30;99.90;;;;;;5073958;28;20210;-69
2022/05/30 07:28:48;;;;;;;1.57;0.70;;;11.30;99.90;;;;;;5061225;28;20665;-69
2022/05/30 07:31:19;;;;;;;1.57;1.20;;;11.30;99.90;;;;;;5074073;28;20188;-68
2022/05/30 07:33:48;;;;;;;1.73;1.43;;;11.40;99.90;;;;;;5072240;28;20193;-69
2022/05/30 07:36:21;;;;;;;1.90;1.03;;;11.40;99.90;;;;;;5073700;28;20286;-68
2022/05/30 07:38:49;;;;;;;3.27;1.00;;;11.30;99.90;;;;;;5072933;28;20188;-68
2022/05/30 07:41:17;;;;;;;1.37;1.13;;;11.20;99.90;;;;;;5073626;28;20198;-68
2022/05/30 07:43:45;;;;;;;1.20;0.90;;;11.20;99.90;;;;;;5073896;28;20204;-69
2022/05/30 07:46:14;;;;;;;1.17;1.00;;;11.20;99.90;;;;;;5098181;28;20213;-70
2022/05/30 07:48:42;;;;;;;1.40;1.00;;;11.10;99.90;;;;;;5080776;28;20644;-69
2022/05/30 07:51:11;;;;;;;1.77;1.17;;;11.10;99.90;;;;;;5073094;28;20197;-69
2022/05/30 07:53:43;;;;;;;1.80;1.20;;;11.10;99.90;;;;;;5092265;28;20205;-69
2022/05/30 07:56:13;;;;;;;2.10;1.40;;;11.10;99.90;;;;;;5085262;28;20282;-68
2022/05/30 07:58:41;;;;;;;2.87;1.20;;;11.00;99.90;;;;;;5072887;28;20267;-68
2022/05/30 08:01:13;;;;;;;1.77;1.30;;;11.00;99.90;;;;;;5073170;28;20669;-68
2022/05/30 08:03:41;;;;;;;2.93;1.97;;;10.90;99.90;;;;;;5072906;28;20175;-70
2022/05/30 08:06:13;;;;;;;2.43;1.57;;;10.90;99.90;;;;;;5072131;28;20212;-69
2022/05/30 08:08:44;;;;;;;5.47;1.50;;;10.80;99.90;;;;;;5069468;28;20178;-68
2022/05/30 08:11:12;;;;;;;1.63;1.53;;;10.80;99.90;;;;;;5072383;28;20219;-68
2022/05/30 08:13:45;;;;;;;2.37;1.47;;;10.70;99.90;;;;;;5072364;28;20206;-68
2022/05/30 08:16:22;;;;;;;3.57;1.60;;;10.70;99.90;;;;;;5057295;28;20196;-68
2022/05/30 08:18:49;;;;;;;3.77;1.30;;;10.70;99.90;;;;;;5072796;28;20228;-68
2022/05/30 08:21:18;;;;;;;4.07;1.50;;;10.60;99.90;;;;;;5071060;28;20183;-68
2022/05/30 08:23:45;;;;;;;2.43;1.60;;;10.60;99.90;;;;;;5072579;28;20282;-68
2022/05/30 08:26:13;;;;;;;2.53;1.53;;;10.60;99.90;;;;;;5055601;28;20215;-69
2022/05/30 08:28:41;;;;;;;1.90;1.30;;;10.50;99.90;;;;;;5072397;28;20683;-68
2022/05/30 08:31:09;;;;;;;4.47;1.37;;;10.40;99.90;;;;;;5072324;28;20799;-68
2022/05/30 08:33:36;;;;;;;3.17;1.40;;;10.50;99.90;;;;;;5071644;28;20179;-68
2022/05/30 08:36:09;;;;;;;2.93;1.57;;;10.50;99.90;;;;;;5103241;28;20217;-68
2022/05/30 08:38:38;;;;;;;1.70;1.00;;;10.40;99.90;;;;;;5071037;28;20272;-68
2022/05/30 08:44:01;;;;;;;1.73;1.03;;;10.50;99.90;;;;;;5072451;28;20274;-69
2022/05/30 08:46:47;;;;;;;1.70;1.10;;;10.60;99.90;;;;;;5071911;28;20264;-69
2022/05/30 08:49:37;;;;;;;1.77;0.90;;;10.60;99.90;;;;;;5072537;28;20272;-69
2022/05/30 08:52:28;;;;;;;1.90;1.00;;;10.70;99.90;;;;;;5071991;28;20190;-69
2022/05/30 08:55:11;;;;;;;1.77;1.13;;;10.70;99.90;;;;;;5071762;28;20205;-68
2022/05/30 08:57:53;;;;;;;1.73;1.37;;;10.70;99.90;;;;;;5071632;28;20552;-68
2022/05/30 09:00:38;;;;;;;3.07;1.40;;;10.70;99.90;;;;;;5070332;28;20178;-69
2022/05/30 09:04:07;;;;;;;2.10;1.40;;;10.70;99.90;;;;;;5072379;28;20647;-69
2022/05/30 09:06:42;;;;;;;3.30;1.80;;;10.60;99.90;;;;;;5035400;28;20222;-69
2022/05/30 09:09:28;;;;;;;3.40;2.27;;;10.50;99.90;;;;;;5032446;28;20313;-69
2022/05/30 09:12:08;;;;;;;4.53;1.93;;;10.40;99.90;;;;;;5062631;28;20257;-68
2022/05/30 09:15:07;;;;;;;3.13;1.90;;;10.30;99.90;;;;;;5072001;28;20185;-69
2022/05/30 09:17:47;;;;;;;2.13;1.27;;;10.20;99.90;;;;;;5067594;28;20220;-69
2022/05/30 09:20:20;;;;;;;2.00;1.30;;;10.20;99.90;;;;;;5069657;28;20237;-69
2022/05/30 09:22:48;;;;;;;3.73;1.50;;;10.20;99.90;;;;;;5071088;28;20549;-70
2022/05/30 09:28:17;;;;;;;2.10;1.40;;;10.10;99.90;;;;;;5071594;28;20192;-68
2022/05/30 09:30:52;;;;;;;3.37;1.50;;;10.10;99.90;;;;;;5071878;28;20234;-68
2022/05/30 09:33:30;;;;;;;2.87;1.70;;;10.10;99.90;;;;;;5071754;28;20188;-69
2022/05/30 09:36:17;;;;;;;1.90;1.53;;;10.10;99.90;;;;;;5071601;28;20186;-67
2022/05/30 09:38:48;;;;;;;1.67;1.20;;;10.00;99.90;;;;;;5070916;28;20690;-69
2022/05/30 09:41:21;;;;;;;3.73;1.77;;;9.90;99.90;;;;;;5070800;28;20320;-68
2022/05/30 09:44:04;;;;;;;4.30;1.53;;;9.90;99.90;;;;;;5055934;28;20173;-69
2022/05/30 09:46:50;;;;;;;2.40;1.57;;;9.80;99.90;;;;;;5071228;28;20216;-68
2022/05/30 09:49:23;;;;;;;7.07;1.53;;;9.80;99.90;;;;;;5071202;28;20193;-70
2022/05/30 09:52:00;;;;;;;2.23;1.30;;;9.90;99.90;;;;;;5070930;28;20189;-69
2022/05/30 09:54:34;;;;;;;4.43;1.30;;;9.90;99.90;;;;;;5071444;28;20185;-68
2022/05/30 09:57:27;;;;;;;4.20;1.70;;;9.90;99.90;;;;;;5071420;28;20180;-69
2022/05/30 09:59:58;;;;;;;1.40;1.20;;;10.10;99.90;;;;;;5071655;28;20187;-70
2022/05/30 10:02:32;;;;;;;2.63;1.23;;;10.20;99.90;;;;;;5063423;28;20187;-69
2022/05/30 10:05:27;;;;;;;2.90;1.40;;;10.20;99.90;;;;;;5060237;28;20721;-69
2022/05/30 10:08:06;;;;;;;1.43;1.27;;;10.20;99.90;;;;;;5070938;28;20312;-68
2022/05/30 10:10:40;;;;;;;2.17;1.23;;;10.10;99.90;;;;;;5070802;28;20234;-68
2022/05/30 10:13:10;;;;;;;1.87;1.10;;;10.10;99.90;;;;;;5063829;28;20617;-68
2022/05/30 10:15:54;;;;;;;1.50;1.30;;;10.10;99.90;;;;;;5070467;28;20200;-69
2022/05/30 10:18:32;;;;;;;2.10;1.00;;;10.20;99.90;;;;;;5071001;28;20569;-69
2022/05/30 10:21:27;;;;;;;1.57;1.00;;;10.20;99.90;;;;;;5071317;28;20716;-69
2022/05/30 10:30:10;;;;;;;2.47;1.00;;;10.60;99.90;;;;;;5049827;28;20197;-69
2022/05/30 10:33:09;;;;;;;0.90;0.90;;;10.70;99.90;;;;;;5070248;28;20219;-68
2022/05/30 10:35:54;;;;;;;1.27;1.17;;;10.70;99.90;;;;;;5074230;28;20180;-69
2022/05/30 10:38:48;;;;;;;2.03;1.20;;;10.60;99.90;;;;;;5065680;28;20250;-69
2022/05/30 10:41:47;;;;;;;1.53;1.10;;;10.60;99.90;;;;;;5073682;28;20884;-70
2022/05/30 10:44:29;;;;;;;1.33;1.17;;;10.60;99.90;;;;;;5067582;28;20200;-69
2022/05/30 10:47:35;;;;;;;2.30;1.57;;;10.50;99.90;;;;;;5073517;28;20204;-68
2022/05/30 10:50:06;;;;;;;3.13;1.67;;;10.60;99.90;;;;;;5068513;28;20203;-68
2022/05/30 10:52:41;;;;;;;3.10;1.40;;;10.50;99.90;;;;;;5074140;28;20550;-69
2022/05/30 10:55:46;;;;;;;3.00;1.30;;;10.40;99.90;;;;;;5074296;28;20187;-69
2022/05/30 10:58:35;;;;;;;1.63;1.10;;;10.40;99.90;;;;;;5048998;28;20198;-70
2022/05/30 11:01:20;;;;;;;3.20;1.30;;;10.40;99.90;;;;;;5074449;28;20191;-69
2022/05/30 11:03:58;;;;;;;1.27;1.00;;;10.40;99.90;;;;;;5073633;28;20191;-71
2022/05/30 11:06:30;;;;;;;1.53;0.90;;;10.50;99.90;;;;;;5073217;28;20208;-70
2022/05/30 11:09:00;;;;;;;5.60;1.00;;;10.50;99.90;;;;;;5074194;28;20285;-70
2022/05/30 11:11:34;;;;;;;3.20;1.30;;;10.70;99.90;;;;;;5076046;28;20183;-69
2022/05/30 11:14:37;;;;;;;3.37;1.60;;;10.70;99.90;;;;;;5075115;28;20719;-70
2022/05/30 11:17:25;;;;;;;2.33;1.77;;;10.60;99.90;;;;;;5063003;28;20224;-69
2022/05/30 11:20:23;;;;;;;2.80;1.80;;;10.60;99.90;;;;;;5072989;28;20237;-70
2022/05/30 11:22:55;;;;;;;1.83;1.47;;;10.50;99.90;;;;;;5075287;28;20271;-70
2022/05/30 11:26:24;;;;;;;2.77;1.70;;;10.50;99.90;;;;;;5075065;28;20207;-71
2022/05/30 11:29:05;;;;;;;2.87;1.90;;;10.60;99.90;;;;;;5045726;28;20238;-69
2022/05/30 11:31:54;;;;;;;3.43;1.37;;;10.50;99.90;;;;;;5038630;28;20181;-70
2022/05/30 11:34:32;;;;;;;2.10;1.30;;;10.70;99.90;;;;;;5052915;28;20224;-69
2022/05/30 11:37:13;;;;;;;1.27;1.03;;;10.90;99.90;;;;;;5055504;28;20184;-70
2022/05/30 11:40:06;;;;;;;1.40;0.80;;;11.10;99.90;;;;;;5055398;28;20638;-70
2022/05/30 11:43:08;;;;;;;1.37;0.80;;;11.30;99.90;;;;;;5054736;28;20191;-69
2022/05/30 11:45:55;;;;;;;1.50;0.70;;;11.40;99.90;;;;;;5064330;28;20550;-69
2022/05/30 11:48:46;;;;;;;2.03;0.70;;;11.50;99.90;;;;;;5074602;28;20203;-70
2022/05/30 11:51:32;;;;;;;1.70;0.70;;;11.50;99.90;;;;;;5075222;28;20230;-70
2022/05/30 11:54:30;;;;;;;2.30;0.60;;;11.50;99.90;;;;;;5075016;28;20177;-69
2022/05/30 11:57:01;;;;;;;1.23;0.60;;;11.50;99.90;;;;;;5074829;28;20189;-69
2022/05/30 11:59:48;;;;;;;0.90;0.67;;;11.80;99.90;;;;;;5075072;28;20226;-69
2022/05/30 12:02:47;;;;;;;2.20;0.60;;;11.80;99.90;;;;;;5074333;28;20189;-69
2022/05/30 12:05:53;;;;;;;1.60;0.70;;;11.90;99.90;;;;;;5073948;28;20219;-70
2022/05/30 12:08:47;;;;;;;2.83;0.80;;;11.80;99.90;;;;;;5074602;28;20252;-70
2022/05/30 12:11:51;;;;;;;2.00;0.90;;;11.90;99.90;;;;;;5074594;28;20176;-70
2022/05/30 12:14:27;;;;;;;0.80;0.80;;;11.90;99.90;;;;;;5074589;28;20251;-70
2022/05/30 12:17:27;;;;;;;1.33;0.83;;;11.90;99.90;;;;;;5072469;28;20902;-69
2022/05/30 12:25:53;;;;;;;1.73;0.80;;;12.00;99.90;;;;;;5073960;28;20234;-70
2022/05/30 12:28:30;;;;;;;0.77;0.63;;;12.00;99.90;;;;;;5074010;28;20229;-70
2022/05/30 12:31:01;;;;;;;1.87;0.93;;;12.00;99.90;;;;;;5074590;28;20184;-70
2022/05/30 12:33:31;;;;;;;4.20;0.90;;;11.90;99.90;;;;;;5073182;28;20177;-69
2022/05/30 12:36:30;;;;;;;2.03;0.90;;;11.90;99.90;;;;;;5072081;28;20180;-70
2022/05/30 12:39:21;;;;;;;2.10;0.77;;;11.80;99.90;;;;;;5073902;28;20209;-71
2022/05/30 12:42:00;;;;;;;2.50;0.83;;;11.90;99.90;;;;;;5072132;28;20178;-70
2022/05/30 12:44:49;;;;;;;2.45;0.80;;;12.00;99.90;;;;;;5073544;28;20578;-72
2022/05/30 12:47:27;;;;;;;1.30;0.67;;;12.00;99.90;;;;;;5070369;28;20607;-69
2022/05/30 12:50:34;;;;;;;2.03;0.53;;;12.00;99.90;;;;;;5073241;28;20238;-70
2022/05/30 12:53:05;;;;;;;2.13;0.70;;;12.00;99.90;;;;;;5052970;28;20192;-71
2022/05/30 12:56:00;;;;;;;0.60;0.50;;;12.10;99.90;;;;;;5070124;28;20230;-71
2022/05/30 12:58:37;;;;;;;1.03;0.57;;;12.10;99.90;;;;;;5072713;28;20190;-70
2022/05/30 13:01:24;;;;;;;0.70;0.50;;;12.20;99.90;;;;;;5069637;28;20225;-70
2022/05/30 13:04:21;;;;;;;1.00;0.47;;;12.30;99.90;;;;;;5073194;28;20184;-71
2022/05/30 13:07:04;;;;;;;0.57;0.50;;;12.30;99.90;;;;;;5072631;28;20229;-69
2022/05/30 13:09:42;;;;;;;2.93;0.70;;;12.50;99.90;;;;;;5072864;28;20175;-69
2022/05/30 13:12:19;;;;;;;0.63;0.53;;;12.40;99.90;;;;;;5072710;28;20195;-70
2022/05/30 13:15:16;;;;;;;1.03;0.80;;;12.40;99.90;;;;;;5072600;28;20220;-70
2022/05/30 13:17:51;;;;;;;1.60;0.60;;;12.40;99.90;;;;;;5065636;28;20716;-70
2022/05/30 13:20:42;;;;;;;1.10;0.53;;;12.40;99.90;;;;;;5071200;28;20199;-70
2022/05/30 13:23:10;;;;;;;0.63;0.50;;;12.30;99.90;;;;;;5071831;28;20189;-70
2022/05/30 13:25:48;;;;;;;3.43;0.80;;;12.30;99.90;;;;;;5071900;28;20575;-70
2022/05/30 13:28:26;;;;;;;2.63;0.70;;;12.30;99.90;;;;;;5071042;28;20264;-71
2022/05/30 13:30:56;;;;;;;0.80;0.50;;;12.20;99.90;;;;;;5069646;28;20186;-71
2022/05/30 13:33:47;;;;;;;0.90;0.40;;;12.10;99.90;;;;;;5071322;28;20182;-69
2022/05/30 13:36:20;;;;;;;0.53;0.47;;;12.00;99.90;;;;;;5073197;28;20182;-70
2022/05/30 13:38:51;;;;;;;6.13;0.60;;;12.00;99.90;;;;;;5073196;28;20180;-70
2022/05/30 13:41:22;;;;;;;0.53;0.47;;;12.00;99.90;;;;;;5072965;28;20170;-70
2022/05/30 13:43:55;;;;;;;1.23;0.50;;;12.00;99.90;;;;;;5072607;28;20196;-70
2022/05/30 13:46:31;;;;;;;0.80;0.60;;;12.10;99.90;;;;;;5072525;28;20208;-69
2022/05/30 13:48:59;;;;;;;0.50;0.47;;;12.00;99.90;;;;;;5072888;28;20173;-69